Time;durP1;ratioP1;P1;durP2;ratioP2;P2;SDS_P1;SDS_P2;PMS_P1;PMS_P2;Temp;Humidity;BMP_temperature;BMP_pressure;BME280_temperature;BME280_humidity;BME280_pressure;Samples;Min_cycle;Max_cycle;Signal;HPM_P1;HPM_P2
2021/06/04 00:00:31;;;;;;;7.83;6.93;;;;;;;;;;10337249;28;20029;-66
2021/06/04 00:05:31;;;;;;;7.22;6.45;;;;;;;;;;10324496;28;20052;-65
2021/06/04 00:10:30;;;;;;;9.82;7.55;;;;;;;;;;10330017;28;20032;-66
2021/06/04 00:15:28;;;;;;;10.05;7.72;;;;;;;;;;10340598;28;21138;-64
2021/06/04 00:20:26;;;;;;;11.73;8.00;;;;;;;;;;10310748;28;20033;-66
2021/06/04 00:25:24;;;;;;;10.43;8.73;;;;;;;;;;10322573;28;20075;-64
2021/06/04 00:30:21;;;;;;;11.67;9.43;;;;;;;;;;10335857;28;20422;-65
2021/06/04 00:35:19;;;;;;;12.30;9.40;;;;;;;;;;10330874;28;20029;-66
2021/06/04 00:40:19;;;;;;;13.33;9.50;;;;;;;;;;10311962;28;20040;-66
2021/06/04 00:45:23;;;;;;;11.23;9.93;;;;;;;;;;10322184;28;20056;-65
2021/06/04 00:50:51;;;;;;;8.35;6.82;;;;;;;;;;10302264;28;20057;-66
2021/06/04 00:55:49;;;;;;;10.45;9.35;;;;;;;;;;10283425;28;20033;-65
2021/06/04 01:00:50;;;;;;;11.85;8.73;;;;;;;;;;10327710;28;20024;-65
2021/06/04 01:05:48;;;;;;;11.40;8.48;;;;;;;;;;10319914;28;20115;-65
2021/06/04 01:11:02;;;;;;;8.48;7.03;;;;;;;;;;10315640;28;20059;-66
2021/06/04 01:16:04;;;;;;;10.20;8.85;;;;;;;;;;10318950;28;20025;-66
2021/06/04 01:21:21;;;;;;;11.38;8.88;;;;;;;;;;10320666;28;20467;-66
2021/06/04 01:26:58;;;;;;;10.43;7.72;;;;;;;;;;10328049;28;20045;-66
2021/06/04 01:31:59;;;;;;;11.65;10.30;;;;;;;;;;10132924;28;20027;-66
2021/06/04 01:36:58;;;;;;;10.95;9.60;;;;;;;;;;10244534;28;20081;-65
2021/06/04 01:42:02;;;;;;;12.27;9.73;;;;;;;;;;10269298;28;20447;-66
2021/06/04 01:47:04;;;;;;;11.07;8.73;;;;;;;;;;10273444;28;20140;-66
2021/06/04 01:52:07;;;;;;;11.25;10.07;;;;;;;;;;10272102;28;20045;-66
2021/06/04 01:57:13;;;;;;;11.38;10.10;;;;;;;;;;10276079;28;20121;-65
2021/06/04 02:02:13;;;;;;;11.52;10.23;;;;;;;;;;10273225;28;20030;-64
2021/06/04 02:07:13;;;;;;;11.65;9.45;;;;;;;;;;10280518;28;20034;-65
2021/06/04 02:12:11;;;;;;;12.60;9.85;;;;;;;;;;10316011;28;20033;-65
2021/06/04 02:17:22;;;;;;;12.52;10.05;;;;;;;;;;10268175;28;20111;-65
2021/06/04 02:22:25;;;;;;;12.95;10.48;;;;;;;;;;10299385;28;20802;-65
2021/06/04 02:27:30;;;;;;;14.52;10.60;;;;;;;;;;10278027;28;20054;-66
2021/06/04 02:32:50;;;;;;;11.60;10.30;;;;;;;;;;10301363;28;20434;-65
2021/06/04 02:37:52;;;;;;;12.48;9.45;;;;;;;;;;10344188;28;20029;-65
2021/06/04 02:42:54;;;;;;;11.55;8.90;;;;;;;;;;10323862;28;20070;-65
2021/06/04 02:47:55;;;;;;;11.15;9.90;;;;;;;;;;10312965;28;20045;-66
2021/06/04 02:52:53;;;;;;;12.55;9.57;;;;;;;;;;10325975;28;20449;-65
2021/06/04 02:57:52;;;;;;;14.02;10.05;;;;;;;;;;10334241;28;20126;-65
2021/06/04 03:02:49;;;;;;;13.17;10.37;;;;;;;;;;10346959;28;20069;-65
2021/06/04 03:07:48;;;;;;;11.05;9.88;;;;;;;;;;10337825;28;20768;-65
2021/06/04 03:12:49;;;;;;;11.43;9.77;;;;;;;;;;10323575;28;20078;-65
2021/06/04 03:17:51;;;;;;;13.75;10.43;;;;;;;;;;10297864;28;20040;-65
2021/06/04 03:22:49;;;;;;;13.13;9.98;;;;;;;;;;10340382;28;20021;-65
2021/06/04 03:27:50;;;;;;;14.02;10.43;;;;;;;;;;10318996;28;20064;-65
2021/06/04 03:32:59;;;;;;;15.13;11.40;;;;;;;;;;10340440;28;20404;-65
2021/06/04 03:37:57;;;;;;;16.88;10.93;;;;;;;;;;10337722;28;20102;-65
2021/06/04 03:42:57;;;;;;;13.55;11.43;;;;;;;;;;10295412;28;20037;-65
2021/06/04 03:47:57;;;;;;;15.75;11.63;;;;;;;;;;10330734;28;20029;-64
2021/06/04 03:52:55;;;;;;;15.68;12.15;;;;;;;;;;10343344;28;20035;-65
2021/06/04 03:57:54;;;;;;;14.83;11.03;;;;;;;;;;10337012;28;20029;-64
2021/06/04 04:02:51;;;;;;;;;;;;;;;;;;10343833;28;20321;-65
2021/06/04 04:07:48;;;;;;;11.45;9.23;;;;;;;;;;10330774;28;19921;-66
2021/06/04 04:12:47;;;;;;;14.77;9.83;;;;;;;;;;10318133;28;20048;-65
2021/06/04 04:17:46;;;;;;;11.25;8.75;;;;;;;;;;10333312;28;20020;-66
2021/06/04 04:22:44;;;;;;;15.07;12.68;;;;;;;;;;10325722;28;20025;-65
2021/06/04 04:27:41;;;;;;;15.73;14.03;;;;;;;;;;10335372;28;20086;-66
2021/06/04 04:32:39;;;;;;;6.30;4.20;;;;;;;;;;10324972;28;20018;-65
2021/06/04 04:37:36;;;;;;;7.13;4.70;;;;;;;;;;10312633;28;21333;-65
2021/06/04 04:42:34;;;;;;;6.07;4.23;;;;;;;;;;10334217;28;20032;-65
2021/06/04 04:47:31;;;;;;;6.97;4.00;;;;;;;;;;10338472;28;20028;-65
2021/06/04 04:52:29;;;;;;;11.03;7.33;;;;;;;;;;10334197;28;20025;-65
2021/06/04 04:57:28;;;;;;;15.93;10.83;;;;;;;;;;10342933;28;20031;-65
2021/06/04 05:02:26;;;;;;;16.02;11.13;;;;;;;;;;10334953;28;20122;-66
2021/06/04 05:07:24;;;;;;;10.13;5.07;;;;;;;;;;10335258;28;20527;-64
2021/06/04 05:12:21;;;;;;;7.93;4.30;;;;;;;;;;10333525;28;20505;-65
2021/06/04 05:17:18;;;;;;;9.47;5.67;;;;;;;;;;10322858;28;20048;-66
2021/06/04 05:22:16;;;;;;;5.50;3.17;;;;;;;;;;10312393;28;20032;-66
2021/06/04 05:27:14;;;;;;;5.13;3.17;;;;;;;;;;10327562;28;20344;-65
2021/06/04 05:32:12;;;;;;;6.70;3.45;;;;;;;;;;10328072;28;20163;-66
2021/06/04 05:37:11;;;;;;;11.43;8.63;;;;;;;;;;10282345;28;20380;-65
2021/06/04 05:42:09;;;;;;;13.00;8.30;;;;;;;;;;10279342;28;20030;-62
2021/06/04 05:47:08;;;;;;;8.15;6.05;;;;;;;;;;10327885;28;20542;-63
2021/06/04 05:52:09;;;;;;;16.50;11.93;;;;;;;;;;10329391;28;20094;-63
2021/06/04 05:57:08;;;;;;;15.50;12.45;;;;;;;;;;10308218;28;20132;-63
2021/06/04 06:02:05;;;;;;;;;;;;;;;;;;10289362;28;20036;-63
2021/06/04 06:07:02;;;;;;;1.80;1.45;;;;;;;;;;10304488;28;20306;-66
2021/06/04 06:12:00;;;;;;;3.20;2.83;;;;;;;;;;10311200;28;20032;-65
2021/06/04 06:16:57;;;;;;;6.17;4.13;;;;;;;;;;10308144;28;20037;-66
2021/06/04 06:21:55;;;;;;;5.20;3.37;;;;;;;;;;10280559;28;20099;-66
2021/06/04 06:26:53;;;;;;;;;;;;;;;;;;10254205;28;20056;-65
2021/06/04 06:31:51;;;;;;;1.57;1.13;;;;;;;;;;10312806;28;19923;-66
2021/06/04 06:36:48;;;;;;;11.95;9.05;;;;;;;;;;10271129;28;20053;-66
2021/06/04 06:41:46;;;;;;;;;;;;;;;;;;10331228;28;20495;-66
2021/06/04 06:46:44;;;;;;;10.73;7.60;;;;;;;;;;10333548;28;20375;-66
2021/06/04 06:51:41;;;;;;;13.40;9.35;;;;;;;;;;10326830;28;20087;-66
2021/06/04 06:56:39;;;;;;;;;;;;;;;;;;10320450;28;20049;-67
2021/06/04 07:01:36;;;;;;;4.60;2.40;;;;;;;;;;10325785;28;20466;-66
2021/06/04 07:06:35;;;;;;;1.60;1.13;;;;;;;;;;10315702;28;20041;-67
2021/06/04 07:11:37;;;;;;;7.13;4.68;;;;;;;;;;10344236;28;20039;-66
2021/06/04 07:16:35;;;;;;;5.60;3.33;;;;;;;;;;10325851;28;20087;-66
2021/06/04 07:21:33;;;;;;;1.55;1.45;;;;;;;;;;10337073;28;20083;-66
2021/06/04 07:26:31;;;;;;;9.52;6.63;;;;;;;;;;10336482;28;20033;-65
2021/06/04 07:31:28;;;;;;;10.95;8.88;;;;;;;;;;10326133;28;21488;-67
2021/06/04 07:36:28;;;;;;;11.38;6.72;;;;;;;;;;10304674;28;20088;-66
2021/06/04 07:41:26;;;;;;;13.13;9.90;;;;;;;;;;10311946;28;20041;-66
2021/06/04 07:46:24;;;;;;;14.98;10.20;;;;;;;;;;10291386;28;20499;-66
2021/06/04 07:51:24;;;;;;;11.35;8.98;;;;;;;;;;10315442;28;20609;-66
2021/06/04 07:56:21;;;;;;;12.07;8.57;;;;;;;;;;10315928;28;20179;-66
2021/06/04 08:01:20;;;;;;;11.82;9.13;;;;;;;;;;10307974;28;20120;-67
2021/06/04 08:06:18;;;;;;;11.23;8.52;;;;;;;;;;10289022;28;20137;-66
2021/06/04 08:11:36;;;;;;;12.88;8.35;;;;;;;;;;10309364;28;20029;-67
2021/06/04 08:16:37;;;;;;;10.88;7.90;;;;;;;;;;10309184;28;20033;-67
2021/06/04 08:21:36;;;;;;;13.85;7.93;;;;;;;;;;10309695;28;20040;-66
2021/06/04 08:26:34;;;;;;;8.70;6.82;;;;;;;;;;10321322;28;20101;-67
2021/06/04 08:31:31;;;;;;;12.85;8.15;;;;;;;;;;10306406;28;20663;-66
2021/06/04 08:36:33;;;;;;;12.07;10.23;;;;;;;;;;10305833;28;20704;-67
2021/06/04 08:41:48;;;;;;;10.23;9.00;;;;;;;;;;10303048;28;20669;-67
2021/06/04 08:46:51;;;;;;;14.27;9.63;;;;;;;;;;10310529;28;20091;-66
2021/06/04 08:52:12;;;;;;;10.65;9.52;;;;;;;;;;10314224;28;20034;-67
2021/06/04 08:57:12;;;;;;;10.45;7.32;;;;;;;;;;10289048;28;20067;-67
2021/06/04 09:02:33;;;;;;;11.20;8.98;;;;;;;;;;10312811;28;20040;-67
2021/06/04 09:07:35;;;;;;;9.10;7.70;;;;;;;;;;10316592;28;20051;-66
2021/06/04 09:12:51;;;;;;;11.57;9.32;;;;;;;;;;10315481;28;20640;-66
2021/06/04 09:18:08;;;;;;;13.13;8.57;;;;;;;;;;10330966;28;20430;-66
2021/06/04 09:23:08;;;;;;;11.63;8.95;;;;;;;;;;10307156;28;20500;-66
2021/06/04 09:28:11;;;;;;;13.60;9.07;;;;;;;;;;10300996;28;20044;-67
2021/06/04 09:33:18;;;;;;;12.90;9.45;;;;;;;;;;10290530;28;20671;-67
2021/06/04 09:38:19;;;;;;;12.10;9.45;;;;;;;;;;10319448;28;20399;-66
2021/06/04 09:43:21;;;;;;;9.82;8.82;;;;;;;;;;10328501;28;20029;-66
2021/06/04 09:48:48;;;;;;;10.00;8.68;;;;;;;;;;10326434;28;20042;-66
2021/06/04 09:53:46;;;;;;;9.60;7.43;;;;;;;;;;10302623;28;20128;-67
2021/06/04 09:58:49;;;;;;;9.07;8.05;;;;;;;;;;10321027;28;20044;-66
2021/06/04 10:03:52;;;;;;;9.82;7.57;;;;;;;;;;10318962;28;20135;-67
2021/06/04 10:08:50;;;;;;;11.15;8.13;;;;;;;;;;10326762;28;20029;-66
2021/06/04 10:13:48;;;;;;;10.27;9.20;;;;;;;;;;10317770;28;20045;-66
2021/06/04 10:18:45;;;;;;;12.53;10.73;;;;;;;;;;10327911;28;20103;-67
2021/06/04 10:23:45;;;;;;;11.45;10.07;;;;;;;;;;10326789;28;20295;-66
2021/06/04 10:28:42;;;;;;;13.48;11.80;;;;;;;;;;10310516;28;20099;-67
2021/06/04 10:33:55;;;;;;;13.82;11.30;;;;;;;;;;10305811;28;20037;-67
2021/06/04 10:38:55;;;;;;;10.48;8.27;;;;;;;;;;10305598;28;20403;-67
2021/06/04 10:43:56;;;;;;;10.82;9.35;;;;;;;;;;10327080;28;20040;-66
2021/06/04 10:49:02;;;;;;;2.88;1.45;;;;;;;;;;10315313;28;20024;-66
2021/06/04 10:54:05;;;;;;;3.90;3.10;;;;;;;;;;10327790;28;20483;-66
2021/06/04 10:59:18;;;;;;;5.00;4.22;;;;;;;;;;10325136;28;20025;-66
2021/06/04 11:04:21;;;;;;;10.40;9.30;;;;;;;;;;10326841;28;20029;-66
2021/06/04 11:09:30;;;;;;;15.52;8.50;;;;;;;;;;10308674;28;20434;-66
2021/06/04 11:14:37;;;;;;;14.55;13.05;;;;;;;;;;10330086;28;20029;-66
2021/06/04 11:19:34;;;;;;;;;;;;;;;;;;10310212;28;20405;-66
2021/06/04 11:24:32;;;;;;;16.73;11.73;;;;;;;;;;10311442;28;19995;-66
2021/06/04 11:29:36;;;;;;;14.25;11.70;;;;;;;;;;10318344;28;20399;-66
2021/06/04 11:34:34;;;;;;;12.80;11.38;;;;;;;;;;10323635;28;20036;-66
2021/06/04 11:39:33;;;;;;;11.70;10.23;;;;;;;;;;10327076;28;20037;-67
2021/06/04 11:44:41;;;;;;;12.73;11.50;;;;;;;;;;10325980;28;20048;-66
2021/06/04 11:49:57;;;;;;;9.43;7.38;;;;;;;;;;10325299;28;20040;-67
2021/06/04 11:55:13;;;;;;;11.33;10.23;;;;;;;;;;10324736;28;20030;-67
2021/06/04 12:00:31;;;;;;;8.90;7.95;;;;;;;;;;10316454;28;20033;-67
2021/06/04 12:05:31;;;;;;;10.38;7.38;;;;;;;;;;10310972;28;20049;-66
2021/06/04 12:10:47;;;;;;;8.75;7.53;;;;;;;;;;10324174;28;20523;-66
2021/06/04 12:15:45;;;;;;;9.23;8.23;;;;;;;;;;10332899;28;20044;-66
2021/06/04 12:20:42;;;;;;;7.53;6.72;;;;;;;;;;10309857;28;20042;-66
2021/06/04 12:25:49;;;;;;;9.33;7.73;;;;;;;;;;10321852;28;20511;-66
2021/06/04 12:30:52;;;;;;;8.20;7.13;;;;;;;;;;10312398;28;20045;-68
2021/06/04 12:35:49;;;;;;;8.75;6.55;;;;;;;;;;10324346;28;20555;-66
2021/06/04 12:40:52;;;;;;;10.13;6.97;;;;;;;;;;10337483;28;20537;-66
2021/06/04 12:45:56;;;;;;;7.07;5.50;;;;;;;;;;10314601;28;20132;-67
2021/06/04 12:50:56;;;;;;;11.32;8.02;;;;;;;;;;10321486;28;20041;-67
2021/06/04 12:55:59;;;;;;;9.05;5.40;;;;;;;;;;10341642;28;20469;-67
2021/06/04 13:01:15;;;;;;;9.68;7.93;;;;;;;;;;10324947;28;20480;-66
2021/06/04 13:06:36;;;;;;;11.90;7.65;;;;;;;;;;10323023;28;20033;-66
2021/06/04 13:11:38;;;;;;;9.18;7.72;;;;;;;;;;10319261;28;20133;-65
2021/06/04 13:16:37;;;;;;;11.23;9.25;;;;;;;;;;10304654;28;20521;-67
2021/06/04 13:21:37;;;;;;;8.60;7.78;;;;;;;;;;10301717;28;20050;-66
2021/06/04 13:26:37;;;;;;;9.63;8.02;;;;;;;;;;10330599;28;20032;-66
2021/06/04 13:31:37;;;;;;;8.60;7.50;;;;;;;;;;10284079;28;20044;-66
2021/06/04 13:36:35;;;;;;;11.38;8.50;;;;;;;;;;10295749;28;21001;-66
2021/06/04 13:41:34;;;;;;;5.85;4.90;;;;;;;;;;10297710;28;20033;-67
2021/06/04 13:46:35;;;;;;;9.15;6.60;;;;;;;;;;10300945;28;20544;-67
2021/06/04 13:51:35;;;;;;;8.45;7.40;;;;;;;;;;10277652;28;20128;-66
2021/06/04 13:56:35;;;;;;;8.40;7.60;;;;;;;;;;10296643;28;20033;-66
2021/06/04 14:01:44;;;;;;;8.63;7.18;;;;;;;;;;10299796;28;20394;-67
2021/06/04 14:06:49;;;;;;;13.82;7.20;;;;;;;;;;10309581;28;20132;-67
2021/06/04 14:11:54;;;;;;;9.50;7.55;;;;;;;;;;10306989;28;20036;-66
2021/06/04 14:16:53;;;;;;;7.97;6.53;;;;;;;;;;10312169;28;20091;-66
2021/06/04 14:21:51;;;;;;;9.50;8.25;;;;;;;;;;10321333;28;20041;-66
2021/06/04 14:26:52;;;;;;;11.40;9.20;;;;;;;;;;10291306;28;20115;-67
2021/06/04 14:31:49;;;;;;;13.52;10.70;;;;;;;;;;10287540;28;20041;-65
2021/06/04 14:36:47;;;;;;;11.43;9.30;;;;;;;;;;10297489;28;20052;-67
2021/06/04 14:41:45;;;;;;;14.90;11.93;;;;;;;;;;10314902;28;20041;-66
2021/06/04 14:46:42;;;;;;;12.20;10.95;;;;;;;;;;10318120;28;20036;-66
2021/06/04 14:51:41;;;;;;;14.30;12.50;;;;;;;;;;10281251;28;20055;-66
2021/06/04 14:56:38;;;;;;;11.50;9.98;;;;;;;;;;10325581;28;20028;-66
2021/06/04 15:01:40;;;;;;;10.00;8.97;;;;;;;;;;10309956;28;20049;-66
2021/06/04 15:06:38;;;;;;;9.73;7.60;;;;;;;;;;10308219;28;20117;-66
2021/06/04 15:11:35;;;;;;;12.73;8.13;;;;;;;;;;10313459;28;20039;-66
2021/06/04 15:16:33;;;;;;;11.45;10.27;;;;;;;;;;10303829;28;20279;-63
2021/06/04 15:21:30;;;;;;;12.57;10.32;;;;;;;;;;10303682;28;20042;-62
2021/06/04 15:26:28;;;;;;;12.10;9.95;;;;;;;;;;10313464;28;20560;-63
2021/06/04 15:31:25;;;;;;;11.70;8.40;;;;;;;;;;10320372;28;20064;-63
2021/06/04 15:36:23;;;;;;;9.33;8.43;;;;;;;;;;10325441;28;20040;-62
2021/06/04 15:41:26;;;;;;;13.98;10.20;;;;;;;;;;10320995;28;20483;-62
2021/06/04 15:46:24;;;;;;;11.63;8.65;;;;;;;;;;10316762;28;20037;-63
2021/06/04 15:51:22;;;;;;;9.20;8.30;;;;;;;;;;10328819;28;20060;-63
2021/06/04 15:56:20;;;;;;;11.07;8.93;;;;;;;;;;10309316;28;20040;-63
2021/06/04 16:01:17;;;;;;;10.27;8.60;;;;;;;;;;10318359;28;20041;-62
2021/06/04 16:06:22;;;;;;;13.48;10.95;;;;;;;;;;10315426;28;20048;-62
2021/06/04 16:11:20;;;;;;;12.40;9.85;;;;;;;;;;10325802;28;20121;-63
2021/06/04 16:16:18;;;;;;;11.77;10.68;;;;;;;;;;10332317;28;20570;-62
2021/06/04 16:21:17;;;;;;;14.00;12.23;;;;;;;;;;10345054;28;20063;-62
2021/06/04 16:26:15;;;;;;;19.45;14.48;;;;;;;;;;10325380;28;20033;-62
2021/06/04 16:31:14;;;;;;;15.77;9.65;;;;;;;;;;10332678;28;20033;-63
2021/06/04 16:36:12;;;;;;;13.35;11.95;;;;;;;;;;10333253;28;20044;-63
2021/06/04 16:41:10;;;;;;;14.70;10.52;;;;;;;;;;10323506;28;20049;-63
2021/06/04 16:46:07;;;;;;;14.23;11.18;;;;;;;;;;10324425;28;20037;-63
2021/06/04 16:51:06;;;;;;;13.27;11.97;;;;;;;;;;10319698;28;20057;-63
2021/06/04 16:56:04;;;;;;;14.48;12.50;;;;;;;;;;10303613;28;20035;-62
2021/06/04 17:01:01;;;;;;;12.32;10.90;;;;;;;;;;10322990;28;20052;-62
2021/06/04 17:05:59;;;;;;;13.98;12.57;;;;;;;;;;10310599;28;20043;-61
2021/06/04 17:10:56;;;;;;;12.50;10.63;;;;;;;;;;10332257;28;20139;-62
2021/06/04 17:15:54;;;;;;;15.73;10.43;;;;;;;;;;10306412;28;20086;-61
2021/06/04 17:20:52;;;;;;;11.13;9.77;;;;;;;;;;10321355;28;20036;-61
2021/06/04 17:25:50;;;;;;;11.95;10.30;;;;;;;;;;10315956;28;20713;-61
2021/06/04 17:30:47;;;;;;;11.05;9.75;;;;;;;;;;10320930;28;20044;-61
2021/06/04 17:35:45;;;;;;;10.17;7.97;;;;;;;;;;10284847;28;20087;-61
2021/06/04 17:40:44;;;;;;;8.52;7.38;;;;;;;;;;10340374;28;20322;-62
2021/06/04 17:45:42;;;;;;;9.68;7.65;;;;;;;;;;10313741;28;20045;-61
2021/06/04 17:50:40;;;;;;;10.43;9.02;;;;;;;;;;10320748;28;20369;-62
2021/06/04 17:55:39;;;;;;;11.50;8.65;;;;;;;;;;10305785;28;20068;-62
2021/06/04 18:00:36;;;;;;;11.40;8.38;;;;;;;;;;10321607;28;20044;-62
2021/06/04 18:05:35;;;;;;;11.73;9.67;;;;;;;;;;10328101;28;20544;-61
2021/06/04 18:10:33;;;;;;;13.30;10.35;;;;;;;;;;10320574;28;20329;-62
2021/06/04 18:15:33;;;;;;;13.45;10.20;;;;;;;;;;10308636;28;20033;-62
2021/06/04 18:20:31;;;;;;;15.00;8.82;;;;;;;;;;10318058;28;20060;-62
2021/06/04 18:25:32;;;;;;;14.35;11.65;;;;;;;;;;10322859;28;20125;-61
2021/06/04 18:30:30;;;;;;;26.75;12.00;;;;;;;;;;10322128;28;20306;-62
2021/06/04 18:35:29;;;;;;;19.75;9.75;;;;;;;;;;10320610;28;20120;-62
2021/06/04 18:40:30;;;;;;;19.38;10.38;;;;;;;;;;10321323;28;20076;-62
2021/06/04 18:45:28;;;;;;;17.38;8.15;;;;;;;;;;10325967;28;20077;-62
2021/06/04 18:50:30;;;;;;;15.95;11.70;;;;;;;;;;10324017;28;20053;-60
2021/06/04 18:55:28;;;;;;;25.27;12.88;;;;;;;;;;10316783;28;20875;-62
2021/06/04 19:00:29;;;;;;;14.25;8.90;;;;;;;;;;10300588;28;20048;-61
2021/06/04 19:05:26;;;;;;;8.98;7.05;;;;;;;;;;10305552;28;20491;-60
2021/06/04 19:10:25;;;;;;;18.38;12.30;;;;;;;;;;10319817;28;20471;-61
2021/06/04 19:15:24;;;;;;;14.48;11.68;;;;;;;;;;10325633;28;20341;-62
2021/06/04 19:20:21;;;;;;;15.45;11.48;;;;;;;;;;10322448;28;20025;-61
2021/06/04 19:25:21;;;;;;;13.05;9.93;;;;;;;;;;10320665;28;20025;-61
2021/06/04 19:30:19;;;;;;;14.68;10.93;;;;;;;;;;10311516;28;20124;-62
2021/06/04 19:35:16;;;;;;;15.45;13.15;;;;;;;;;;10317661;28;20131;-61
2021/06/04 19:40:14;;;;;;;15.40;13.80;;;;;;;;;;10320097;28;20045;-61
2021/06/04 19:45:12;;;;;;;14.95;13.05;;;;;;;;;;10319988;28;20333;-62
2021/06/04 19:50:11;;;;;;;14.80;13.00;;;;;;;;;;10326995;28;20037;-61
2021/06/04 19:55:11;;;;;;;16.55;12.70;;;;;;;;;;10309534;28;20518;-60
2021/06/04 20:00:13;;;;;;;15.52;13.25;;;;;;;;;;10319286;28;20132;-61
2021/06/04 20:05:12;;;;;;;15.13;12.35;;;;;;;;;;10325771;28;20578;-61
2021/06/04 20:10:11;;;;;;;15.95;12.20;;;;;;;;;;10323086;28;20950;-61
2021/06/04 20:15:09;;;;;;;16.20;14.18;;;;;;;;;;10323641;28;20068;-60
2021/06/04 20:20:08;;;;;;;17.15;13.82;;;;;;;;;;10329715;28;20911;-61
2021/06/04 20:25:07;;;;;;;17.80;14.73;;;;;;;;;;10326247;28;20037;-62
2021/06/04 20:30:08;;;;;;;17.25;14.00;;;;;;;;;;10326573;28;20037;-61
2021/06/04 20:35:06;;;;;;;20.17;15.65;;;;;;;;;;10313395;28;20090;-61
2021/06/04 20:40:05;;;;;;;18.25;14.38;;;;;;;;;;10318536;28;20036;-61
2021/06/04 20:45:05;;;;;;;22.00;18.73;;;;;;;;;;10316541;28;20087;-60
2021/06/04 20:50:04;;;;;;;21.80;19.63;;;;;;;;;;10284947;28;20059;-61
2021/06/04 20:55:03;;;;;;;21.85;19.55;;;;;;;;;;10280423;28;20478;-61
2021/06/04 21:00:01;;;;;;;24.50;18.83;;;;;;;;;;10319478;28;20052;-60
2021/06/04 21:05:02;;;;;;;21.40;19.02;;;;;;;;;;10301470;28;20033;-61
2021/06/04 21:09:59;;;;;;;23.67;20.20;;;;;;;;;;10315968;28;21391;-60
2021/06/04 21:14:57;;;;;;;22.07;19.33;;;;;;;;;;10300612;28;20463;-61
2021/06/04 21:19:54;;;;;;;22.83;20.45;;;;;;;;;;10308072;28;20028;-60
2021/06/04 21:24:51;;;;;;;21.30;19.20;;;;;;;;;;10288062;28;20031;-61
2021/06/04 21:29:49;;;;;;;21.55;19.00;;;;;;;;;;10334954;28;20044;-61
2021/06/04 21:34:49;;;;;;;20.00;18.00;;;;;;;;;;10339491;28;20499;-61
2021/06/04 21:39:46;;;;;;;19.48;17.48;;;;;;;;;;10326407;28;20040;-61
2021/06/04 21:44:44;;;;;;;20.43;12.83;;;;;;;;;;10328957;28;20036;-60
2021/06/04 21:49:41;;;;;;;13.57;11.90;;;;;;;;;;10316192;28;20793;-60
2021/06/04 21:54:39;;;;;;;16.73;12.87;;;;;;;;;;10321266;28;20032;-61
2021/06/04 21:59:36;;;;;;;16.67;13.30;;;;;;;;;;10291612;28;20288;-61
2021/06/04 22:04:35;;;;;;;17.90;12.80;;;;;;;;;;10311996;28;20033;-60
2021/06/04 22:09:35;;;;;;;22.45;11.07;;;;;;;;;;10312161;28;20821;-61
2021/06/04 22:14:32;;;;;;;14.18;11.68;;;;;;;;;;10319847;28;20095;-61
2021/06/04 22:19:30;;;;;;;15.37;12.60;;;;;;;;;;10323832;28;20032;-61
2021/06/04 22:24:28;;;;;;;17.30;13.83;;;;;;;;;;10312985;28;22179;-61
2021/06/04 22:29:26;;;;;;;15.63;13.90;;;;;;;;;;10322738;28;20350;-61
2021/06/04 22:34:23;;;;;;;;;;;;;;;;;;10316235;28;20040;-61
2021/06/04 22:39:23;;;;;;;15.93;12.77;;;;;;;;;;10325471;28;20267;-60
2021/06/04 22:44:21;;;;;;;14.70;13.20;;;;;;;;;;10328049;28;20299;-61
2021/06/04 22:49:18;;;;;;;;;;;;;;;;;;10330939;28;20605;-60
2021/06/04 22:54:15;;;;;;;17.02;13.50;;;;;;;;;;10330068;28;19920;-60
2021/06/04 22:59:13;;;;;;;;;;;;;;;;;;10331026;28;20048;-61
2021/06/04 23:04:10;;;;;;;15.68;13.82;;;;;;;;;;10329057;28;20233;-61
2021/06/04 23:09:07;;;;;;;;;;;;;;;;;;10326454;28;20090;-61
2021/06/04 23:14:05;;;;;;;17.83;13.45;;;;;;;;;;10327466;28;20376;-61
2021/06/04 23:19:03;;;;;;;;;;;;;;;;;;10319581;28;20037;-61
2021/06/04 23:24:01;;;;;;;17.45;15.75;;;;;;;;;;10332314;28;19999;-61
2021/06/04 23:28:58;;;;;;;17.02;15.15;;;;;;;;;;10335052;28;20035;-60
2021/06/04 23:33:55;;;;;;;;;;;;;;;;;;10307042;28;20455;-61
2021/06/04 23:38:53;;;;;;;19.53;16.03;;;;;;;;;;10333648;28;20406;-61
2021/06/04 23:43:51;;;;;;;17.80;15.32;;;;;;;;;;10310112;28;20037;-61
2021/06/04 23:48:48;;;;;;;;;;;;;;;;;;10301963;28;20036;-60
2021/06/04 23:53:46;;;;;;;17.43;14.63;;;;;;;;;;10323796;28;19912;-61
2021/06/04 23:58:44;;;;;;;;;;;;;;;;;;10319458;28;21199;-61
